Chazy Landing, New York
Current Conditions -  °F | °C
As of 1:53 PM on Saturday 25 Oct 2014 (Local Time) from KPBG Reporting Station
Clear Clear  
Wind Chill: 56°   Ceiling: Unl
Heat Index: 56°   Visibility: 10mi
Dew Point: 44°   Wind: 14mph
Humidity: 64%   Direction: 140°SE
Pressure: 29.59"   Gusts: NA
Location:  44.8906°N, 73.4663°W
Report Text: KPBG 251753Z AUTO 14012KT 10SM CLR 13/07 A2959 RMK AO2 SLP021 T01330067 10133 20072 58043
Loading
Personal Weather Stations






























Interactive Weather Map
Tropical Storm Tracking
New forecast layout! Learn more

10-Day Weather Forecast

Advertisements
Track Severe Weather on mobile